Time;durP1;ratioP1;P1;durP2;ratioP2;P2;SDS_P1;SDS_P2;PMS_P1;PMS_P2;Temp;Humidity;BMP_temperature;BMP_pressure;BME280_temperature;BME280_humidity;BME280_pressure;Samples;Min_cycle;Max_cycle;Signal;HPM_P1;HPM_P2
2023/11/05 00:00:11;;;;;;;31.10;17.90;;;;;;;7.46;66.79;96570.38;234267;216;133138;-58
2023/11/05 00:05:35;;;;;;;34.40;19.20;;;;;;;7.49;66.42;96559.50;234130;216;149236;-58
2023/11/05 00:10:39;;;;;;;30.70;18.70;;;;;;;7.42;66.27;96557.70;234165;215;138928;-56
2023/11/05 00:15:42;;;;;;;32.10;18.80;;;;;;;7.36;66.11;96562.57;234325;216;138613;-58
2023/11/05 00:20:46;;;;;;;28.90;17.60;;;;;;;7.28;66.22;96562.94;234190;216;150963;-57
2023/11/05 00:25:49;;;;;;;32.90;18.60;;;;;;;7.20;66.49;96555.92;234149;215;139529;-55
2023/11/05 00:30:53;;;;;;;26.40;17.40;;;;;;;7.10;66.77;96554.25;234237;216;138224;-58
2023/11/05 00:35:56;;;;;;;30.80;17.90;;;;;;;7.06;67.10;96559.06;234311;215;149837;-59
2023/11/05 00:40:59;;;;;;;30.50;19.00;;;;;;;7.03;67.28;96558.77;234158;217;138839;-59
2023/11/05 00:46:03;;;;;;;32.40;19.10;;;;;;;7.02;67.59;96551.01;234336;214;138347;-59
2023/11/05 00:51:06;;;;;;;29.80;18.30;;;;;;;7.04;67.88;96547.09;234141;216;149148;-58
2023/11/05 00:56:10;;;;;;;30.20;17.80;;;;;;;7.05;67.70;96542.02;234170;216;139459;-57
2023/11/05 01:01:13;;;;;;;26.30;16.30;;;;;;;7.08;67.97;96547.58;234257;215;137771;-58
2023/11/05 01:06:16;;;;;;;23.80;15.30;;;;;;;7.21;68.18;96544.58;234186;216;261052;-57
2023/11/05 01:11:20;;;;;;;23.10;13.40;;;;;;;7.45;68.20;96530.07;234169;214;139378;-57
2023/11/05 01:16:23;;;;;;;27.80;13.70;;;;;;;7.81;67.97;96511.95;234268;216;137265;-58
2023/11/05 01:21:27;;;;;;;26.10;12.50;;;;;;;7.98;67.28;96506.86;234279;216;149180;-57
2023/11/05 01:26:30;;;;;;;22.20;11.80;;;;;;;8.07;66.91;96476.17;234170;214;139143;-59
2023/11/05 01:31:33;;;;;;;18.50;10.20;;;;;;;8.24;66.50;96453.44;234176;216;137353;-58
2023/11/05 01:36:37;;;;;;;14.00;7.80;;;;;;;8.29;66.07;96459.47;234044;216;149177;-57
2023/11/05 01:41:40;;;;;;;11.60;7.50;;;;;;;8.35;65.51;96475.54;234202;216;139023;-56
2023/11/05 01:46:43;;;;;;;10.60;6.10;;;;;;;8.36;65.15;96467.35;234318;214;140175;-57
2023/11/05 01:51:47;;;;;;;10.80;5.20;;;;;;;8.43;64.91;96468.09;234359;214;150023;-56
2023/11/05 01:56:51;;;;;;;11.50;5.90;;;;;;;8.53;64.85;96449.67;234213;215;139539;-58
2023/11/05 02:01:55;;;;;;;11.80;6.80;;;;;;;8.55;64.93;96453.12;234208;216;137426;-58
2023/11/05 02:06:58;;;;;;;13.40;7.00;;;;;;;8.57;65.09;96454.02;234189;215;149390;-59
2023/11/05 02:12:02;;;;;;;15.00;7.00;;;;;;;8.57;64.96;96455.08;234125;216;139595;-59
2023/11/05 02:17:05;;;;;;;11.90;6.20;;;;;;;8.61;64.82;96447.43;234168;214;137782;-61
2023/11/05 02:22:14;;;;;;;9.20;6.30;;;;;;;8.65;64.56;96446.52;234240;216;151243;-60
2023/11/05 02:27:18;;;;;;;14.20;7.00;;;;;;;8.66;64.36;96431.95;234187;215;139270;-59
2023/11/05 02:32:21;;;;;;;12.80;7.10;;;;;;;8.63;64.24;96429.99;234176;216;139012;-60
2023/11/05 02:37:24;;;;;;;11.70;6.80;;;;;;;8.62;64.48;96431.59;234165;215;150836;-61
2023/11/05 02:42:27;;;;;;;10.80;6.40;;;;;;;8.64;64.50;96440.05;234162;213;139523;-61
2023/11/05 02:47:31;;;;;;;9.20;5.50;;;;;;;8.68;64.32;96438.44;234251;214;138930;-59
2023/11/05 02:52:34;;;;;;;11.30;5.40;;;;;;;8.76;63.87;96430.45;234172;217;149508;-60
2023/11/05 02:57:37;;;;;;;9.80;5.90;;;;;;;8.83;63.86;96429.43;234355;216;138760;-60
2023/11/05 03:02:41;;;;;;;8.30;5.00;;;;;;;8.89;63.78;96445.29;234186;216;137224;-60
2023/11/05 03:07:45;;;;;;;8.70;4.90;;;;;;;9.00;63.57;96449.34;234230;216;150410;-60
2023/11/05 03:12:48;;;;;;;6.30;3.80;;;;;;;9.08;63.52;96445.94;234109;214;138880;-58
2023/11/05 03:17:51;;;;;;;7.80;3.50;;;;;;;9.14;63.52;96444.44;234246;214;136736;-60
2023/11/05 03:22:55;;;;;;;7.00;3.80;;;;;;;9.25;63.06;96431.10;234270;216;149907;-59
2023/11/05 03:27:58;;;;;;;8.90;4.00;;;;;;;9.36;62.94;96405.30;234293;216;138928;-58
2023/11/05 03:33:04;;;;;;;7.80;3.90;;;;;;;9.39;63.08;96384.27;234205;216;137955;-60
2023/11/05 03:38:08;;;;;;;7.80;3.60;;;;;;;9.39;63.29;96365.49;234201;215;149803;-61
2023/11/05 03:43:11;;;;;;;8.70;4.60;;;;;;;9.38;63.59;96355.87;234196;216;138945;-60
2023/11/05 03:48:15;;;;;;;8.40;4.40;;;;;;;9.35;63.49;96369.27;234114;217;137877;-61
2023/11/05 03:53:18;;;;;;;7.10;4.10;;;;;;;9.34;64.08;96361.11;234147;216;149522;-60
2023/11/05 03:58:21;;;;;;;7.80;4.40;;;;;;;9.31;64.06;96357.66;234160;214;138795;-60
2023/11/05 04:03:24;;;;;;;7.90;4.00;;;;;;;9.28;64.38;96353.39;234282;214;137335;-60
2023/11/05 04:08:28;;;;;;;7.80;4.30;;;;;;;9.29;64.51;96357.02;234231;216;150510;-60
2023/11/05 04:13:31;;;;;;;13.10;4.50;;;;;;;9.34;64.50;96367.83;234186;216;139267;-61
2023/11/05 04:18:34;;;;;;;7.90;4.40;;;;;;;9.37;64.46;96368.02;234177;214;138422;-61
2023/11/05 04:23:39;;;;;;;9.10;4.70;;;;;;;9.34;64.44;96372.61;234154;216;150496;-59
2023/11/05 04:28:42;;;;;;;7.30;4.90;;;;;;;9.29;64.19;96382.86;234145;216;140546;-60
2023/11/05 04:33:45;;;;;;;8.60;4.70;;;;;;;9.22;64.26;96388.27;234330;216;138046;-61
2023/11/05 04:38:48;;;;;;;10.30;4.70;;;;;;;9.16;64.48;96368.06;234059;216;149726;-60
2023/11/05 04:43:52;;;;;;;10.50;4.90;;;;;;;9.12;64.87;96364.16;234201;216;139381;-61
2023/11/05 04:48:55;;;;;;;10.10;5.20;;;;;;;9.13;65.10;96330.92;234299;216;137697;-62
2023/11/05 04:53:58;;;;;;;12.10;4.70;;;;;;;9.12;65.13;96325.77;234218;216;150273;-61
2023/11/05 04:59:02;;;;;;;8.30;4.40;;;;;;;9.03;65.11;96349.27;234261;216;139777;-61
2023/11/05 05:04:05;;;;;;;8.80;5.40;;;;;;;8.98;65.30;96359.66;234405;215;136863;-61
2023/11/05 05:09:09;;;;;;;9.50;5.00;;;;;;;8.95;65.52;96364.23;234125;209;149335;-60
2023/11/05 05:14:13;;;;;;;8.80;5.30;;;;;;;8.91;65.88;96356.84;234143;214;139899;-60
2023/11/05 05:19:16;;;;;;;15.50;5.30;;;;;;;8.84;65.92;96349.97;234160;216;138628;-60
2023/11/05 05:24:19;;;;;;;12.30;4.80;;;;;;;8.74;66.48;96339.58;234152;216;150138;-59
2023/11/05 05:29:22;;;;;;;8.60;4.50;;;;;;;8.76;66.82;96334.07;234203;216;138623;-61
2023/11/05 05:34:25;;;;;;;11.30;4.70;;;;;;;8.84;67.09;96332.79;234243;216;137913;-61
2023/11/05 05:39:28;;;;;;;10.50;4.80;;;;;;;8.93;67.19;96330.71;234285;216;149769;-60
2023/11/05 05:44:32;;;;;;;11.40;5.00;;;;;;;8.99;66.88;96331.48;234193;214;139247;-60
2023/11/05 05:49:35;;;;;;;9.30;4.60;;;;;;;9.02;66.92;96337.74;234119;214;138575;-60
2023/11/05 05:54:39;;;;;;;12.90;5.90;;;;;;;9.07;67.08;96351.95;234196;216;149296;-60
2023/11/05 05:59:42;;;;;;;13.00;6.10;;;;;;;9.09;66.92;96355.21;234269;216;139548;-59
2023/11/05 06:04:46;;;;;;;10.70;5.50;;;;;;;9.07;66.90;96355.30;234161;216;137785;-60
2023/11/05 06:09:50;;;;;;;10.20;5.20;;;;;;;9.02;66.94;96341.85;234293;215;149403;-59
2023/11/05 06:14:53;;;;;;;14.30;5.80;;;;;;;8.96;66.92;96338.86;234109;215;138639;-60
2023/11/05 06:20:10;;;;;;;11.40;6.20;;;;;;;8.98;67.43;96326.65;234159;215;138240;-57
2023/11/05 06:25:14;;;;;;;13.60;6.70;;;;;;;9.01;67.58;96330.08;234125;216;149350;-59
2023/11/05 06:30:17;;;;;;;11.90;6.20;;;;;;;9.04;67.63;96334.35;234095;216;139643;-59
2023/11/05 06:35:20;;;;;;;13.70;7.00;;;;;;;9.10;68.04;96332.55;234170;216;140769;-59
2023/11/05 06:40:23;;;;;;;11.80;6.70;;;;;;;9.20;67.96;96330.11;234224;215;149258;-58
2023/11/05 06:45:27;;;;;;;10.50;7.00;;;;;;;9.34;67.61;96328.66;234292;215;139480;-59
2023/11/05 06:50:30;;;;;;;15.90;6.90;;;;;;;9.46;67.29;96325.66;234199;213;136953;-59
2023/11/05 06:55:33;;;;;;;12.70;6.80;;;;;;;9.58;67.26;96321.70;234222;216;149225;-59
2023/11/05 07:00:38;;;;;;;12.10;6.60;;;;;;;9.69;66.93;96313.99;234239;216;139222;-58
2023/11/05 07:05:41;;;;;;;13.10;6.80;;;;;;;9.80;66.62;96299.98;234144;215;138434;-59
2023/11/05 07:10:44;;;;;;;11.80;7.00;;;;;;;9.89;66.38;96294.77;234131;216;150161;-59
2023/11/05 07:15:48;;;;;;;13.70;6.40;;;;;;;9.92;66.42;96296.02;234258;214;141272;-59
2023/11/05 07:20:51;;;;;;;12.70;6.50;;;;;;;9.94;66.68;96285.89;234174;216;137682;-57
2023/11/05 07:25:54;;;;;;;14.80;6.70;;;;;;;9.96;66.83;96279.35;234264;215;149141;-59
2023/11/05 07:30:58;;;;;;;12.00;6.50;;;;;;;9.96;67.17;96284.61;234283;216;138942;-60
2023/11/05 07:36:01;;;;;;;11.90;6.30;;;;;;;10.04;67.47;96281.73;234218;216;137228;-59
2023/11/05 07:41:06;;;;;;;9.60;5.10;;;;;;;10.18;67.28;96275.13;234196;214;149948;-58
2023/11/05 07:46:09;;;;;;;9.70;5.10;;;;;;;10.41;66.87;96277.98;234242;216;140316;-58
2023/11/05 07:51:17;;;;;;;11.60;5.30;;;;;;;10.64;66.49;96288.52;234238;216;137590;-59
2023/11/05 07:56:20;;;;;;;13.30;4.80;;;;;;;10.84;66.23;96298.79;234261;216;150093;-59
2023/11/05 08:01:24;;;;;;;8.80;4.40;;;;;;;10.93;66.19;96307.60;234159;214;139727;-59
2023/11/05 08:06:28;;;;;;;7.40;3.80;;;;;;;11.00;66.44;96311.82;234209;216;137918;-59
2023/11/05 08:11:31;;;;;;;7.40;3.50;;;;;;;11.11;66.54;96312.21;234221;216;149130;-58
2023/11/05 08:16:37;;;;;;;66.80;49.70;;;;;;;11.23;67.73;96308.11;234088;214;139536;-60
2023/11/05 08:21:40;;;;;;;10.40;7.40;;;;;;;11.37;67.60;96302.13;234246;216;137432;-59
2023/11/05 08:26:47;;;;;;;5.20;2.60;;;;;;;11.40;67.95;96297.38;234088;216;150458;-60
2023/11/05 08:31:50;;;;;;;3.80;2.10;;;;;;;11.43;67.79;96288.00;234135;216;139580;-57
2023/11/05 08:36:54;;;;;;;38.60;29.10;;;;;;;11.48;68.38;96289.05;234199;209;138246;-59
2023/11/05 08:41:58;;;;;;;5.60;3.20;;;;;;;11.61;68.36;96292.77;234208;216;149149;-60
2023/11/05 08:47:01;;;;;;;3.10;2.10;;;;;;;11.71;68.26;96296.40;233942;216;138849;-58
2023/11/05 08:52:06;;;;;;;3.90;2.00;;;;;;;11.77;68.05;96309.09;234301;217;138105;-57
2023/11/05 08:57:09;;;;;;;44.00;28.60;;;;;;;11.82;68.14;96299.66;234188;217;149100;-58
2023/11/05 09:02:12;;;;;;;3.70;1.70;;;;;;;11.85;68.12;96292.43;234144;215;139474;-59
2023/11/05 09:07:16;;;;;;;3.10;1.70;;;;;;;11.84;68.14;96292.67;234117;217;137470;-61
2023/11/05 09:12:19;;;;;;;4.00;1.80;;;;;;;11.83;68.25;96284.63;234150;216;150104;-60
2023/11/05 09:17:23;;;;;;;4.90;2.00;;;;;;;11.80;68.74;96281.86;234130;216;139065;-62
2023/11/05 09:22:27;;;;;;;6.00;2.40;;;;;;;11.85;68.92;96279.41;234154;213;138920;-61
2023/11/05 09:27:31;;;;;;;70.60;51.40;;;;;;;11.93;69.49;96282.48;234313;214;150587;-61
2023/11/05 09:32:34;;;;;;;5.50;2.70;;;;;;;12.04;69.35;96287.03;234136;215;139349;-61
2023/11/05 09:37:42;;;;;;;3.70;2.50;;;;;;;11.98;69.29;96273.92;234200;216;138775;-61
2023/11/05 09:43:01;;;;;;;4.10;2.10;;;;;;;11.83;69.97;96263.79;234215;216;149612;-63
2023/11/05 09:48:11;;;;;;;7.40;2.80;;;;;;;11.73;70.58;96243.78;234164;216;140802;-62
2023/11/05 09:53:16;;;;;;;114.50;65.30;;;;;;;11.61;71.37;96231.40;234181;215;137733;-62
2023/11/05 09:58:19;;;;;;;4.70;3.30;;;;;;;11.61;72.65;96211.70;234234;216;149141;-62
2023/11/05 10:03:25;;;;;;;4.80;1.90;;;;;;;11.65;72.47;96206.39;233966;216;139046;-62
2023/11/05 10:08:34;;;;;;;3.90;2.30;;;;;;;11.64;72.68;96194.56;234131;214;137475;-61
2023/11/05 10:13:38;;;;;;;9.10;4.30;;;;;;;11.72;72.69;96171.27;234194;213;149480;-64
2023/11/05 10:18:43;;;;;;;9.50;6.20;;;;;;;11.76;72.75;96155.00;234118;214;139939;-61
2023/11/05 10:23:51;;;;;;;;;;;;;;;11.76;73.02;96135.32;234117;209;137451;-61
2023/11/05 10:28:54;;;;;;;5.80;3.90;;;;;;;11.73;73.17;96137.19;234189;212;150530;-61
2023/11/05 10:33:59;;;;;;;4.60;2.20;;;;;;;11.70;73.55;96149.61;234175;212;141905;-59
2023/11/05 10:39:05;;;;;;;2.30;1.80;;;;;;;11.71;73.69;96151.88;234119;213;140100;-60
2023/11/05 10:44:10;;;;;;;4.10;1.70;;;;;;;11.76;73.78;96145.03;234114;213;149471;-60
2023/11/05 10:49:14;;;;;;;2.50;1.60;;;;;;;11.79;73.84;96127.66;234114;213;139492;-60
2023/11/05 10:54:17;;;;;;;2.30;1.80;;;;;;;11.80;73.96;96121.63;234163;208;138169;-59
2023/11/05 10:59:38;;;;;;;3.00;2.00;;;;;;;11.81;74.10;96118.57;234277;209;149961;-59
2023/11/05 11:04:41;;;;;;;2.60;2.10;;;;;;;11.79;74.05;96085.04;234146;212;138924;-57
2023/11/05 11:09:46;;;;;;;3.70;2.30;;;;;;;11.78;73.99;96054.74;233929;209;137393;-59
2023/11/05 11:14:52;;;;;;;4.60;2.70;;;;;;;11.78;74.10;96038.44;234098;212;150664;-58
2023/11/05 11:19:55;;;;;;;135.50;105.60;;;;;;;11.81;74.57;96015.86;234044;209;140421;-59
2023/11/05 11:25:03;;;;;;;11.50;6.70;;;;;;;11.99;75.28;96021.11;234113;209;139182;-58
2023/11/05 11:30:09;;;;;;;5.40;3.40;;;;;;;12.10;74.37;96029.75;234145;213;149688;-59
2023/11/05 11:35:12;;;;;;;5.40;3.10;;;;;;;12.10;73.86;96072.31;234102;213;138870;-64
2023/11/05 11:40:20;;;;;;;4.80;3.10;;;;;;;12.06;73.88;96109.29;234247;215;138803;-62
2023/11/05 11:45:24;;;;;;;6.40;4.20;;;;;;;12.03;73.88;96092.42;234222;214;150645;-58
2023/11/05 11:50:27;;;;;;;284.50;205.30;;;;;;;11.97;74.21;96098.29;234157;209;139866;-59
2023/11/05 11:55:31;;;;;;;17.40;11.20;;;;;;;12.03;74.89;96085.15;234160;212;139077;-59
2023/11/05 12:00:35;;;;;;;5.10;3.50;;;;;;;12.03;74.55;96088.11;234048;214;150409;-59
2023/11/05 12:05:42;;;;;;;5.80;3.70;;;;;;;12.04;74.44;96098.17;234104;209;140898;-59
2023/11/05 12:10:45;;;;;;;5.60;3.40;;;;;;;12.04;74.46;96093.66;234141;214;138709;-58
2023/11/05 12:15:50;;;;;;;4.80;3.10;;;;;;;12.04;74.57;96093.54;234197;213;149136;-59
2023/11/05 12:20:53;;;;;;;4.90;3.40;;;;;;;12.02;74.72;96091.78;234109;213;139550;-59
2023/11/05 12:25:58;;;;;;;4.50;3.40;;;;;;;11.99;75.03;96079.58;234157;213;137883;-60
2023/11/05 12:31:04;;;;;;;4.10;3.00;;;;;;;11.97;75.00;96091.69;234198;213;149433;-60
2023/11/05 12:36:07;;;;;;;5.70;3.50;;;;;;;12.02;74.98;96127.67;234165;213;140040;-58
2023/11/05 12:41:11;;;;;;;6.30;3.80;;;;;;;12.26;77.99;96137.27;234133;214;139053;-56
2023/11/05 12:46:14;;;;;;;6.00;3.40;;;;;;;12.89;78.94;96135.98;234273;213;151398;-62
2023/11/05 12:51:17;;;;;;;5.80;3.60;;;;;;;13.37;77.00;96129.30;233917;214;139631;-63
2023/11/05 12:56:20;;;;;;;5.70;3.70;;;;;;;13.63;75.16;96131.70;234023;212;137519;-63
2023/11/05 13:01:24;;;;;;;123.80;101.80;;;;;;;13.81;74.44;96112.46;234043;213;150020;-64
2023/11/05 13:06:27;;;;;;;4.80;3.80;;;;;;;13.78;71.85;96107.48;234166;214;139721;-63
2023/11/05 13:11:30;;;;;;;227.00;165.10;;;;;;;13.42;71.41;96121.27;234170;213;137463;-63
2023/11/05 13:16:34;;;;;;;8.50;4.60;;;;;;;13.25;71.87;96116.66;234132;208;149360;-61
2023/11/05 13:21:37;;;;;;;424.50;339.30;;;;;;;13.03;71.93;96123.19;234276;214;138846;-62
2023/11/05 13:26:41;;;;;;;17.10;14.00;;;;;;;12.88;72.65;96129.60;233704;209;138415;-62
2023/11/05 13:31:44;;;;;;;8.70;5.30;;;;;;;12.71;72.80;96133.02;234064;214;149210;-63
2023/11/05 13:36:47;;;;;;;7.50;4.70;;;;;;;12.60;72.95;96141.00;234180;209;139511;-63
2023/11/05 13:41:50;;;;;;;29.70;22.80;;;;;;;12.62;73.20;96146.39;234146;209;137873;-64
2023/11/05 13:46:54;;;;;;;9.80;8.00;;;;;;;12.65;73.40;96142.65;233813;213;149302;-64
2023/11/05 13:51:57;;;;;;;7.90;5.70;;;;;;;12.66;73.50;96132.07;233933;213;139473;-63
2023/11/05 13:57:03;;;;;;;7.60;4.80;;;;;;;12.65;73.18;96130.25;233965;209;138411;-63
2023/11/05 14:02:06;;;;;;;5.80;4.20;;;;;;;12.62;72.75;96133.58;234116;212;154828;-63
2023/11/05 14:07:11;;;;;;;6.40;4.20;;;;;;;12.51;72.86;96135.61;234127;214;139660;-63
2023/11/05 14:12:14;;;;;;;6.70;3.70;;;;;;;12.42;72.87;96142.88;233933;209;137385;-62
2023/11/05 14:17:17;;;;;;;5.60;3.40;;;;;;;12.36;73.30;96150.52;234129;209;149903;-62
2023/11/05 14:22:21;;;;;;;6.90;4.10;;;;;;;12.36;73.46;96138.58;234189;214;138902;-63
2023/11/05 14:27:25;;;;;;;5.90;4.10;;;;;;;12.34;73.59;96136.29;234231;213;137634;-61
2023/11/05 14:32:28;;;;;;;8.00;4.90;;;;;;;12.33;73.58;96136.23;234164;209;149353;-62
2023/11/05 14:37:32;;;;;;;139.30;79.30;;;;;;;12.35;73.98;96142.83;234059;213;139462;-63
2023/11/05 14:42:35;;;;;;;8.40;5.60;;;;;;;12.38;74.16;96142.55;234134;213;138087;-64
2023/11/05 14:47:39;;;;;;;6.00;4.50;;;;;;;12.32;73.90;96159.46;234220;213;149388;-63
2023/11/05 14:52:43;;;;;;;7.20;5.10;;;;;;;12.25;74.21;96163.23;234178;214;139430;-63
2023/11/05 14:57:46;;;;;;;8.40;5.90;;;;;;;12.22;74.12;96165.00;234331;214;138147;-63
2023/11/05 15:02:49;;;;;;;9.40;6.00;;;;;;;12.22;74.10;96174.01;234128;212;149176;-62
2023/11/05 15:07:53;;;;;;;8.20;5.70;;;;;;;12.16;73.91;96175.94;234097;212;140215;-63
2023/11/05 15:12:57;;;;;;;175.00;99.70;;;;;;;12.03;74.06;96192.06;234193;214;138050;-62
2023/11/05 15:18:00;;;;;;;11.50;6.40;;;;;;;12.03;75.74;96199.16;234142;214;149313;-62
2023/11/05 15:23:04;;;;;;;7.30;5.00;;;;;;;11.96;74.58;96203.02;234109;212;138880;-62
2023/11/05 15:28:09;;;;;;;7.40;5.30;;;;;;;11.86;74.60;96214.84;234312;208;138695;-63
2023/11/05 15:33:12;;;;;;;7.90;4.80;;;;;;;11.81;74.74;96213.39;234116;214;149413;-64
2023/11/05 15:38:16;;;;;;;7.20;5.10;;;;;;;11.73;74.84;96221.47;234065;209;138802;-63
2023/11/05 15:43:19;;;;;;;248.20;166.90;;;;;;;11.70;75.08;96231.73;234133;209;138786;-63
2023/11/05 15:48:22;;;;;;;9.90;7.50;;;;;;;11.70;75.37;96236.27;234082;209;150012;-63
2023/11/05 15:53:26;;;;;;;8.30;5.50;;;;;;;11.61;75.15;96249.67;234076;208;138744;-63
2023/11/05 15:58:30;;;;;;;6.60;4.70;;;;;;;11.58;75.23;96256.09;233794;208;139405;-63
2023/11/05 16:03:34;;;;;;;6.10;4.80;;;;;;;11.59;75.15;96263.84;234207;212;149582;-62
2023/11/05 16:08:39;;;;;;;8.50;6.40;;;;;;;11.58;74.78;96263.67;234091;213;139017;-63
2023/11/05 16:13:42;;;;;;;8.10;5.40;;;;;;;11.52;74.53;96269.55;234149;212;138604;-66
2023/11/05 16:18:45;;;;;;;121.30;87.30;;;;;;;11.48;75.06;96277.88;234093;213;149994;-66
2023/11/05 16:23:48;;;;;;;8.20;5.90;;;;;;;11.60;75.41;96279.47;234070;209;139858;-67
2023/11/05 16:28:52;;;;;;;7.20;5.60;;;;;;;11.46;74.13;96278.23;233980;210;139252;-67
2023/11/05 16:33:56;;;;;;;9.10;5.70;;;;;;;11.32;73.81;96288.41;234263;212;150181;-68
2023/11/05 16:38:59;;;;;;;6.90;5.40;;;;;;;11.21;73.93;96292.80;234138;214;140013;-68
2023/11/05 16:44:03;;;;;;;8.90;5.80;;;;;;;11.20;74.18;96301.29;234074;214;137429;-66
2023/11/05 16:49:06;;;;;;;7.30;5.40;;;;;;;11.18;74.11;96306.17;234111;214;152840;-65
2023/11/05 16:54:11;;;;;;;7.80;5.40;;;;;;;11.20;74.44;96306.65;234009;213;139394;-67
2023/11/05 16:59:14;;;;;;;9.20;6.10;;;;;;;11.23;75.20;96313.00;234101;208;138024;-65
2023/11/05 17:04:18;;;;;;;9.40;5.70;;;;;;;11.26;74.52;96328.15;234252;213;149742;-66
2023/11/05 17:09:22;;;;;;;8.20;5.60;;;;;;;11.30;74.59;96334.99;234172;208;139657;-64
2023/11/05 17:14:25;;;;;;;8.60;5.60;;;;;;;11.34;74.29;96343.55;234092;214;137940;-64
2023/11/05 17:19:29;;;;;;;8.30;5.60;;;;;;;11.34;74.08;96351.48;234152;208;149477;-64
2023/11/05 17:24:32;;;;;;;8.00;5.40;;;;;;;11.30;73.84;96357.73;234124;213;138809;-62
2023/11/05 17:29:35;;;;;;;9.10;4.90;;;;;;;11.28;73.70;96369.89;234162;214;137337;-63
2023/11/05 17:34:38;;;;;;;8.70;5.20;;;;;;;11.27;73.65;96377.02;234118;213;150288;-63
2023/11/05 17:39:42;;;;;;;8.10;5.20;;;;;;;11.25;73.46;96380.02;234207;214;139445;-64
2023/11/05 17:44:45;;;;;;;6.60;4.50;;;;;;;11.26;73.54;96391.01;234111;213;138372;-65
2023/11/05 17:49:48;;;;;;;6.30;4.60;;;;;;;11.27;73.55;96397.42;234112;213;149277;-65
2023/11/05 17:54:55;;;;;;;226.60;174.70;;;;;;;11.31;73.98;96404.05;234153;209;138771;-64
2023/11/05 17:59:58;;;;;;;14.10;9.10;;;;;;;11.52;74.60;96406.92;234093;213;138025;-65
2023/11/05 18:05:02;;;;;;;6.70;5.20;;;;;;;11.69;73.05;96406.01;233973;214;149392;-64
2023/11/05 18:10:07;;;;;;;7.80;5.60;;;;;;;11.86;72.27;96403.09;234141;213;140948;-65
2023/11/05 18:15:11;;;;;;;7.20;5.20;;;;;;;12.04;71.83;96411.50;234147;213;137364;-65
2023/11/05 18:20:14;;;;;;;7.40;5.30;;;;;;;12.13;71.51;96419.55;234092;209;150057;-65
2023/11/05 18:25:17;;;;;;;7.50;5.00;;;;;;;12.14;71.13;96427.13;234075;214;140576;-65
2023/11/05 18:30:20;;;;;;;7.10;5.20;;;;;;;12.16;70.76;96423.81;234158;213;138312;-65
2023/11/05 18:35:24;;;;;;;7.10;5.20;;;;;;;12.17;70.29;96436.38;234125;209;149387;-65
2023/11/05 18:40:27;;;;;;;8.70;6.30;;;;;;;12.14;69.89;96450.73;234078;213;139366;-65
2023/11/05 18:45:30;;;;;;;8.00;5.70;;;;;;;12.11;69.70;96455.34;234201;214;138576;-65
2023/11/05 18:50:34;;;;;;;9.30;5.40;;;;;;;12.03;69.26;96470.39;234049;209;150710;-65
2023/11/05 18:55:37;;;;;;;7.80;5.60;;;;;;;11.94;69.21;96481.55;234084;214;139134;-65
2023/11/05 19:00:41;;;;;;;8.30;6.10;;;;;;;11.92;69.08;96490.48;233999;214;138660;-64
2023/11/05 19:05:44;;;;;;;110.30;93.10;;;;;;;11.89;69.46;96493.14;234061;209;149566;-66
2023/11/05 19:10:48;;;;;;;18.90;13.80;;;;;;;11.98;70.06;96504.66;234119;214;140117;-65
2023/11/05 19:15:53;;;;;;;13.00;8.80;;;;;;;11.99;68.89;96506.38;234219;210;137801;-67
2023/11/05 19:20:56;;;;;;;9.60;7.20;;;;;;;11.81;69.23;96512.36;234063;215;149798;-70
2023/11/05 19:26:00;;;;;;;11.50;7.20;;;;;;;11.62;69.57;96528.22;234095;214;138637;-68
2023/11/05 19:31:04;;;;;;;10.40;7.40;;;;;;;11.40;70.28;96532.19;234049;215;138431;-67
2023/11/05 19:36:11;;;;;;;13.80;7.60;;;;;;;11.25;70.72;96537.20;234090;216;149320;-69
2023/11/05 19:41:14;;;;;;;8.90;6.80;;;;;;;11.03;71.07;96548.35;234097;215;139840;-68
2023/11/05 19:46:17;;;;;;;79.10;56.40;;;;;;;10.84;71.41;96554.38;234150;214;138562;-64
2023/11/05 19:51:20;;;;;;;51.80;33.10;;;;;;;10.76;72.32;96557.27;234048;214;150149;-60
2023/11/05 19:56:24;;;;;;;11.20;8.10;;;;;;;10.76;72.76;96566.72;234104;214;139645;-70
2023/11/05 20:01:28;;;;;;;12.30;8.60;;;;;;;10.68;71.76;96572.00;234066;209;137899;-69
2023/11/05 20:06:32;;;;;;;10.70;8.50;;;;;;;10.56;71.77;96587.92;234032;214;149420;-67
2023/11/05 20:11:36;;;;;;;11.70;8.70;;;;;;;10.44;71.81;96597.30;234056;209;140959;-65
2023/11/05 20:16:42;;;;;;;12.80;9.20;;;;;;;10.30;71.86;96606.42;233999;214;138677;-66
2023/11/05 20:21:48;;;;;;;14.50;10.00;;;;;;;10.14;72.07;96606.93;234203;214;150113;-68
2023/11/05 20:26:52;;;;;;;15.70;10.10;;;;;;;10.05;72.59;96611.82;234108;214;138911;-67
2023/11/05 20:31:55;;;;;;;15.40;9.60;;;;;;;10.07;73.16;96618.29;234063;216;137720;-67
2023/11/05 20:36:59;;;;;;;14.60;9.80;;;;;;;10.12;73.24;96627.92;234109;210;149413;-67
2023/11/05 20:42:02;;;;;;;13.60;10.00;;;;;;;10.10;72.88;96625.60;234031;213;139511;-69
2023/11/05 20:47:06;;;;;;;13.00;8.70;;;;;;;10.12;73.10;96639.21;234115;214;137620;-68
2023/11/05 20:52:10;;;;;;;10.80;7.70;;;;;;;10.24;73.21;96654.70;233427;214;149955;-68
2023/11/05 20:57:14;;;;;;;13.10;9.60;;;;;;;10.37;73.15;96664.99;233801;213;141210;-67
2023/11/05 21:02:18;;;;;;;11.80;9.10;;;;;;;10.32;72.64;96671.84;234185;214;137940;-67
2023/11/05 21:07:21;;;;;;;14.40;10.50;;;;;;;10.21;72.52;96679.65;234035;214;150303;-65
2023/11/05 21:12:25;;;;;;;17.80;11.50;;;;;;;10.05;72.42;96687.76;234153;214;139444;-67
2023/11/05 21:17:29;;;;;;;19.60;13.90;;;;;;;9.89;72.27;96695.69;234136;213;138712;-65
2023/11/05 21:22:33;;;;;;;18.50;13.20;;;;;;;9.78;72.22;96703.52;234067;209;150798;-68
2023/11/05 21:27:36;;;;;;;15.10;11.60;;;;;;;9.64;72.37;96703.36;234261;213;140227;-67
2023/11/05 21:32:39;;;;;;;15.70;11.60;;;;;;;9.56;72.78;96713.23;234134;213;138206;-66
2023/11/05 21:37:43;;;;;;;15.20;11.60;;;;;;;9.57;72.93;96722.48;234142;214;150211;-66
2023/11/05 21:42:47;;;;;;;15.70;11.40;;;;;;;9.63;73.20;96727.96;234061;214;139460;-66
2023/11/05 21:47:51;;;;;;;18.70;13.30;;;;;;;9.67;73.38;96727.55;234035;213;137284;-68
2023/11/05 21:52:55;;;;;;;17.70;12.30;;;;;;;9.73;73.77;96734.63;234114;216;150124;-69
2023/11/05 21:57:59;;;;;;;15.70;11.70;;;;;;;9.73;74.02;96733.40;234228;213;138824;-70
2023/11/05 22:03:03;;;;;;;15.90;11.30;;;;;;;9.72;74.30;96741.66;234013;214;138194;-67
2023/11/05 22:08:07;;;;;;;12.30;8.80;;;;;;;9.70;74.62;96749.73;234061;213;150373;-68
2023/11/05 22:13:11;;;;;;;8.80;6.20;;;;;;;9.87;75.19;96758.56;234112;215;139133;-69
2023/11/05 22:18:14;;;;;;;6.80;4.60;;;;;;;10.15;74.91;96763.15;234179;214;137915;-68
2023/11/05 22:23:18;;;;;;;8.30;4.40;;;;;;;10.47;74.52;96769.27;234155;210;149446;-68
2023/11/05 22:28:22;;;;;;;3.60;2.30;;;;;;;10.73;74.00;96773.67;234236;216;139615;-66
2023/11/05 22:33:26;;;;;;;2.20;1.50;;;;;;;11.00;73.10;96775.21;234257;213;138199;-66
2023/11/05 22:38:29;;;;;;;1.50;0.80;;;;;;;11.24;72.13;96774.95;234150;213;149975;-66
2023/11/05 22:43:32;;;;;;;2.80;0.90;;;;;;;11.43;71.52;96785.92;234116;213;138830;-66
2023/11/05 22:48:36;;;;;;;1.40;0.90;;;;;;;11.59;70.70;96796.89;234166;214;137543;-67
2023/11/05 22:53:40;;;;;;;1.50;0.70;;;;;;;11.75;70.02;96801.35;234164;213;149331;-68
2023/11/05 22:58:43;;;;;;;1.60;0.70;;;;;;;11.91;69.46;96811.06;234179;209;139550;-66
2023/11/05 23:03:54;;;;;;;1.50;0.80;;;;;;;12.05;68.81;96817.04;234142;209;139577;-66
2023/11/05 23:08:58;;;;;;;1.10;0.70;;;;;;;12.18;68.21;96821.27;234230;214;150976;-66
2023/11/05 23:14:02;;;;;;;1.00;0.70;;;;;;;12.27;67.52;96828.17;234105;213;139838;-67
2023/11/05 23:19:06;;;;;;;1.20;0.80;;;;;;;12.33;67.40;96830.58;234092;210;138458;-66
2023/11/05 23:24:09;;;;;;;1.00;0.50;;;;;;;12.35;66.95;96833.16;234050;215;149435;-66